sensor_id;sensor_type;location;lat;lon;timestamp;P1;durP1;ratioP1;P2;durP2;ratioP2
14268;SDS011;7218;51.480;7.006;2023-03-26T00:00:21;15.85;;;4.70;;
14268;SDS011;7218;51.480;7.006;2023-03-26T00:02:47;15.40;;;4.28;;
14268;SDS011;7218;51.480;7.006;2023-03-26T00:05:14;14.10;;;4.47;;
14268;SDS011;7218;51.480;7.006;2023-03-26T00:07:40;12.90;;;4.22;;
14268;SDS011;7218;51.480;7.006;2023-03-26T00:10:08;14.25;;;4.45;;
14268;SDS011;7218;51.480;7.006;2023-03-26T00:12:36;16.67;;;4.53;;
14268;SDS011;7218;51.480;7.006;2023-03-26T00:15:03;20.13;;;4.63;;
14268;SDS011;7218;51.480;7.006;2023-03-26T00:17:30;16.10;;;4.85;;
14268;SDS011;7218;51.480;7.006;2023-03-26T00:19:57;21.42;;;4.50;;
14268;SDS011;7218;51.480;7.006;2023-03-26T00:22:24;19.13;;;4.53;;
14268;SDS011;7218;51.480;7.006;2023-03-26T00:24:50;21.15;;;4.93;;
14268;SDS011;7218;51.480;7.006;2023-03-26T00:27:17;17.88;;;4.32;;
14268;SDS011;7218;51.480;7.006;2023-03-26T00:29:45;14.95;;;4.18;;
14268;SDS011;7218;51.480;7.006;2023-03-26T00:32:12;17.52;;;4.35;;
14268;SDS011;7218;51.480;7.006;2023-03-26T00:34:39;16.70;;;4.00;;
14268;SDS011;7218;51.480;7.006;2023-03-26T00:37:06;20.38;;;4.50;;
14268;SDS011;7218;51.480;7.006;2023-03-26T00:39:33;18.67;;;4.15;;
14268;SDS011;7218;51.480;7.006;2023-03-26T00:42:01;16.20;;;4.22;;
14268;SDS011;7218;51.480;7.006;2023-03-26T00:44:31;19.60;;;4.07;;
14268;SDS011;7218;51.480;7.006;2023-03-26T00:46:59;17.98;;;4.38;;
14268;SDS011;7218;51.480;7.006;2023-03-26T00:49:25;17.48;;;4.13;;
14268;SDS011;7218;51.480;7.006;2023-03-26T00:51:54;19.23;;;4.18;;
14268;SDS011;7218;51.480;7.006;2023-03-26T00:54:21;19.67;;;4.25;;
14268;SDS011;7218;51.480;7.006;2023-03-26T00:56:47;21.02;;;4.10;;
14268;SDS011;7218;51.480;7.006;2023-03-26T00:59:14;16.13;;;4.22;;
14268;SDS011;7218;51.480;7.006;2023-03-26T01:01:41;18.83;;;3.83;;
14268;SDS011;7218;51.480;7.006;2023-03-26T01:04:20;18.52;;;4.28;;
14268;SDS011;7218;51.480;7.006;2023-03-26T01:06:51;21.35;;;4.40;;
14268;SDS011;7218;51.480;7.006;2023-03-26T01:09:19;23.40;;;5.28;;
14268;SDS011;7218;51.480;7.006;2023-03-26T01:11:49;20.48;;;5.25;;
14268;SDS011;7218;51.480;7.006;2023-03-26T01:14:16;24.10;;;5.65;;
14268;SDS011;7218;51.480;7.006;2023-03-26T01:16:46;25.90;;;6.15;;
14268;SDS011;7218;51.480;7.006;2023-03-26T01:19:17;20.23;;;4.15;;
14268;SDS011;7218;51.480;7.006;2023-03-26T01:21:51;20.00;;;4.60;;
14268;SDS011;7218;51.480;7.006;2023-03-26T01:24:19;19.27;;;4.35;;
14268;SDS011;7218;51.480;7.006;2023-03-26T01:26:52;24.20;;;5.10;;
14268;SDS011;7218;51.480;7.006;2023-03-26T01:29:42;19.63;;;5.15;;
14268;SDS011;7218;51.480;7.006;2023-03-26T01:32:21;26.70;;;5.35;;
14268;SDS011;7218;51.480;7.006;2023-03-26T01:35:01;22.23;;;4.85;;
14268;SDS011;7218;51.480;7.006;2023-03-26T01:37:39;21.63;;;4.72;;
14268;SDS011;7218;51.480;7.006;2023-03-26T01:40:19;22.65;;;4.10;;
14268;SDS011;7218;51.480;7.006;2023-03-26T01:42:53;24.70;;;4.60;;
14268;SDS011;7218;51.480;7.006;2023-03-26T01:45:26;18.13;;;4.20;;
14268;SDS011;7218;51.480;7.006;2023-03-26T01:47:55;20.23;;;3.92;;
14268;SDS011;7218;51.480;7.006;2023-03-26T01:50:22;19.77;;;4.22;;
14268;SDS011;7218;51.480;7.006;2023-03-26T01:52:49;28.50;;;4.68;;
14268;SDS011;7218;51.480;7.006;2023-03-26T01:55:17;24.60;;;4.25;;
14268;SDS011;7218;51.480;7.006;2023-03-26T01:57:47;25.33;;;4.85;;
14268;SDS011;7218;51.480;7.006;2023-03-26T02:00:22;23.95;;;4.20;;
14268;SDS011;7218;51.480;7.006;2023-03-26T02:02:59;20.35;;;4.70;;
14268;SDS011;7218;51.480;7.006;2023-03-26T02:05:34;21.33;;;4.28;;
14268;SDS011;7218;51.480;7.006;2023-03-26T02:08:09;21.17;;;3.67;;
14268;SDS011;7218;51.480;7.006;2023-03-26T02:10:46;27.10;;;4.80;;
14268;SDS011;7218;51.480;7.006;2023-03-26T02:13:16;17.52;;;4.30;;
14268;SDS011;7218;51.480;7.006;2023-03-26T02:15:53;20.17;;;4.07;;
14268;SDS011;7218;51.480;7.006;2023-03-26T02:18:20;19.17;;;3.80;;
14268;SDS011;7218;51.480;7.006;2023-03-26T02:20:48;22.63;;;4.13;;
14268;SDS011;7218;51.480;7.006;2023-03-26T02:23:17;24.90;;;4.18;;
14268;SDS011;7218;51.480;7.006;2023-03-26T02:25:45;20.50;;;4.22;;
14268;SDS011;7218;51.480;7.006;2023-03-26T02:28:12;22.25;;;3.88;;
14268;SDS011;7218;51.480;7.006;2023-03-26T02:30:38;20.13;;;4.03;;
14268;SDS011;7218;51.480;7.006;2023-03-26T02:33:05;24.65;;;4.22;;
14268;SDS011;7218;51.480;7.006;2023-03-26T02:35:32;16.10;;;3.90;;
14268;SDS011;7218;51.480;7.006;2023-03-26T02:37:58;18.70;;;4.35;;
14268;SDS011;7218;51.480;7.006;2023-03-26T02:40:25;23.48;;;4.57;;
14268;SDS011;7218;51.480;7.006;2023-03-26T02:42:53;25.63;;;4.80;;
14268;SDS011;7218;51.480;7.006;2023-03-26T02:45:19;28.17;;;4.75;;
14268;SDS011;7218;51.480;7.006;2023-03-26T02:47:46;28.08;;;4.20;;
14268;SDS011;7218;51.480;7.006;2023-03-26T02:50:15;25.63;;;4.85;;
14268;SDS011;7218;51.480;7.006;2023-03-26T02:52:42;21.35;;;4.60;;
14268;SDS011;7218;51.480;7.006;2023-03-26T02:55:09;25.13;;;4.72;;
14268;SDS011;7218;51.480;7.006;2023-03-26T02:57:36;19.20;;;4.03;;
14268;SDS011;7218;51.480;7.006;2023-03-26T03:00:04;21.92;;;4.85;;
14268;SDS011;7218;51.480;7.006;2023-03-26T03:02:39;21.58;;;4.53;;
14268;SDS011;7218;51.480;7.006;2023-03-26T03:05:08;22.02;;;4.38;;
14268;SDS011;7218;51.480;7.006;2023-03-26T03:07:35;22.75;;;4.63;;
14268;SDS011;7218;51.480;7.006;2023-03-26T03:10:03;21.20;;;3.80;;
14268;SDS011;7218;51.480;7.006;2023-03-26T03:12:32;21.88;;;4.60;;
14268;SDS011;7218;51.480;7.006;2023-03-26T03:14:59;21.30;;;4.13;;
14268;SDS011;7218;51.480;7.006;2023-03-26T03:17:27;23.20;;;4.03;;
14268;SDS011;7218;51.480;7.006;2023-03-26T03:19:55;28.48;;;4.63;;
14268;SDS011;7218;51.480;7.006;2023-03-26T03:22:21;25.55;;;4.30;;
14268;SDS011;7218;51.480;7.006;2023-03-26T03:24:48;29.92;;;4.80;;
14268;SDS011;7218;51.480;7.006;2023-03-26T03:27:15;18.38;;;3.72;;
14268;SDS011;7218;51.480;7.006;2023-03-26T03:29:43;23.35;;;4.28;;
14268;SDS011;7218;51.480;7.006;2023-03-26T03:32:10;19.52;;;3.80;;
14268;SDS011;7218;51.480;7.006;2023-03-26T03:34:38;21.50;;;4.00;;
14268;SDS011;7218;51.480;7.006;2023-03-26T03:37:06;22.48;;;4.20;;
14268;SDS011;7218;51.480;7.006;2023-03-26T03:39:33;23.17;;;4.15;;
14268;SDS011;7218;51.480;7.006;2023-03-26T03:41:59;22.50;;;4.28;;
14268;SDS011;7218;51.480;7.006;2023-03-26T03:44:26;24.13;;;3.85;;
14268;SDS011;7218;51.480;7.006;2023-03-26T03:46:52;22.30;;;3.92;;
14268;SDS011;7218;51.480;7.006;2023-03-26T03:49:20;19.00;;;3.78;;
14268;SDS011;7218;51.480;7.006;2023-03-26T03:51:47;22.92;;;4.53;;
14268;SDS011;7218;51.480;7.006;2023-03-26T03:54:14;20.88;;;4.40;;
14268;SDS011;7218;51.480;7.006;2023-03-26T03:56:40;14.88;;;3.65;;
14268;SDS011;7218;51.480;7.006;2023-03-26T03:59:09;19.02;;;3.47;;
14268;SDS011;7218;51.480;7.006;2023-03-26T04:01:36;22.30;;;4.15;;
14268;SDS011;7218;51.480;7.006;2023-03-26T04:04:03;15.13;;;3.83;;
14268;SDS011;7218;51.480;7.006;2023-03-26T04:06:29;21.58;;;3.63;;
14268;SDS011;7218;51.480;7.006;2023-03-26T04:08:57;21.40;;;4.20;;
14268;SDS011;7218;51.480;7.006;2023-03-26T04:11:24;15.80;;;3.45;;
14268;SDS011;7218;51.480;7.006;2023-03-26T04:13:51;15.00;;;3.30;;
14268;SDS011;7218;51.480;7.006;2023-03-26T04:16:17;18.30;;;3.33;;
14268;SDS011;7218;51.480;7.006;2023-03-26T04:18:44;21.42;;;4.05;;
14268;SDS011;7218;51.480;7.006;2023-03-26T04:21:11;17.00;;;3.80;;
14268;SDS011;7218;51.480;7.006;2023-03-26T04:23:40;17.08;;;3.70;;
14268;SDS011;7218;51.480;7.006;2023-03-26T04:26:09;20.20;;;3.80;;
14268;SDS011;7218;51.480;7.006;2023-03-26T04:28:41;17.88;;;3.45;;
14268;SDS011;7218;51.480;7.006;2023-03-26T04:31:11;21.52;;;3.92;;
14268;SDS011;7218;51.480;7.006;2023-03-26T04:33:41;19.52;;;4.38;;
14268;SDS011;7218;51.480;7.006;2023-03-26T04:36:10;15.77;;;3.65;;
14268;SDS011;7218;51.480;7.006;2023-03-26T04:38:39;13.95;;;3.17;;
14268;SDS011;7218;51.480;7.006;2023-03-26T04:41:09;20.10;;;3.47;;
14268;SDS011;7218;51.480;7.006;2023-03-26T04:43:37;17.13;;;3.25;;
14268;SDS011;7218;51.480;7.006;2023-03-26T04:46:06;15.80;;;3.10;;
14268;SDS011;7218;51.480;7.006;2023-03-26T04:48:34;13.63;;;3.35;;
14268;SDS011;7218;51.480;7.006;2023-03-26T04:51:02;16.23;;;3.30;;
14268;SDS011;7218;51.480;7.006;2023-03-26T04:53:31;21.80;;;4.30;;
14268;SDS011;7218;51.480;7.006;2023-03-26T04:56:01;19.27;;;3.67;;
14268;SDS011;7218;51.480;7.006;2023-03-26T04:58:33;18.70;;;3.83;;
14268;SDS011;7218;51.480;7.006;2023-03-26T05:00:59;17.77;;;3.10;;
14268;SDS011;7218;51.480;7.006;2023-03-26T05:03:27;17.60;;;3.63;;
14268;SDS011;7218;51.480;7.006;2023-03-26T05:05:56;12.32;;;3.15;;
14268;SDS011;7218;51.480;7.006;2023-03-26T05:08:23;16.27;;;3.25;;
14268;SDS011;7218;51.480;7.006;2023-03-26T05:10:50;14.02;;;3.20;;
14268;SDS011;7218;51.480;7.006;2023-03-26T05:13:17;15.73;;;2.97;;
14268;SDS011;7218;51.480;7.006;2023-03-26T05:15:45;14.77;;;3.17;;
14268;SDS011;7218;51.480;7.006;2023-03-26T05:18:11;16.13;;;3.50;;
14268;SDS011;7218;51.480;7.006;2023-03-26T05:20:38;14.77;;;3.28;;
14268;SDS011;7218;51.480;7.006;2023-03-26T05:23:05;13.68;;;3.00;;
14268;SDS011;7218;51.480;7.006;2023-03-26T05:25:32;14.70;;;3.17;;
14268;SDS011;7218;51.480;7.006;2023-03-26T05:27:59;13.07;;;2.50;;
14268;SDS011;7218;51.480;7.006;2023-03-26T05:30:26;11.82;;;2.85;;
14268;SDS011;7218;51.480;7.006;2023-03-26T05:32:54;14.40;;;2.95;;
14268;SDS011;7218;51.480;7.006;2023-03-26T05:35:20;14.60;;;3.15;;
14268;SDS011;7218;51.480;7.006;2023-03-26T05:37:47;15.88;;;3.42;;
14268;SDS011;7218;51.480;7.006;2023-03-26T05:40:15;14.02;;;3.05;;
14268;SDS011;7218;51.480;7.006;2023-03-26T05:42:42;11.30;;;2.65;;
14268;SDS011;7218;51.480;7.006;2023-03-26T05:45:10;12.75;;;3.30;;
14268;SDS011;7218;51.480;7.006;2023-03-26T05:47:38;12.68;;;3.30;;
14268;SDS011;7218;51.480;7.006;2023-03-26T05:50:06;14.10;;;3.40;;
14268;SDS011;7218;51.480;7.006;2023-03-26T05:52:34;14.05;;;3.13;;
14268;SDS011;7218;51.480;7.006;2023-03-26T05:55:00;15.52;;;3.15;;
14268;SDS011;7218;51.480;7.006;2023-03-26T05:57:28;17.42;;;3.33;;
14268;SDS011;7218;51.480;7.006;2023-03-26T05:59:55;11.35;;;3.35;;
14268;SDS011;7218;51.480;7.006;2023-03-26T06:02:21;14.30;;;3.42;;
14268;SDS011;7218;51.480;7.006;2023-03-26T06:04:48;16.55;;;3.28;;
14268;SDS011;7218;51.480;7.006;2023-03-26T06:07:17;14.68;;;3.00;;
14268;SDS011;7218;51.480;7.006;2023-03-26T06:09:43;9.45;;;2.55;;
14268;SDS011;7218;51.480;7.006;2023-03-26T06:12:10;13.52;;;3.13;;
14268;SDS011;7218;51.480;7.006;2023-03-26T06:14:38;15.02;;;3.15;;
14268;SDS011;7218;51.480;7.006;2023-03-26T06:17:07;15.13;;;3.15;;
14268;SDS011;7218;51.480;7.006;2023-03-26T06:19:34;12.50;;;3.17;;
14268;SDS011;7218;51.480;7.006;2023-03-26T06:22:00;11.63;;;2.92;;
14268;SDS011;7218;51.480;7.006;2023-03-26T06:24:28;12.95;;;2.92;;
14268;SDS011;7218;51.480;7.006;2023-03-26T06:26:55;14.55;;;2.85;;
14268;SDS011;7218;51.480;7.006;2023-03-26T06:29:21;12.55;;;3.00;;
14268;SDS011;7218;51.480;7.006;2023-03-26T06:31:48;16.35;;;3.00;;
14268;SDS011;7218;51.480;7.006;2023-03-26T06:34:14;13.75;;;2.80;;
14268;SDS011;7218;51.480;7.006;2023-03-26T06:36:41;13.75;;;2.92;;
14268;SDS011;7218;51.480;7.006;2023-03-26T06:39:07;12.20;;;2.78;;
14268;SDS011;7218;51.480;7.006;2023-03-26T06:41:35;13.70;;;3.03;;
14268;SDS011;7218;51.480;7.006;2023-03-26T06:44:02;15.02;;;3.05;;
14268;SDS011;7218;51.480;7.006;2023-03-26T06:46:29;9.40;;;2.55;;
14268;SDS011;7218;51.480;7.006;2023-03-26T06:48:55;9.48;;;2.60;;
14268;SDS011;7218;51.480;7.006;2023-03-26T06:51:22;13.43;;;2.95;;
14268;SDS011;7218;51.480;7.006;2023-03-26T06:53:48;12.35;;;2.65;;
14268;SDS011;7218;51.480;7.006;2023-03-26T06:56:15;9.40;;;2.42;;
14268;SDS011;7218;51.480;7.006;2023-03-26T06:58:43;14.80;;;2.83;;
14268;SDS011;7218;51.480;7.006;2023-03-26T07:01:09;16.60;;;3.25;;
14268;SDS011;7218;51.480;7.006;2023-03-26T07:03:36;10.50;;;3.00;;
14268;SDS011;7218;51.480;7.006;2023-03-26T07:06:03;12.23;;;3.08;;
14268;SDS011;7218;51.480;7.006;2023-03-26T07:08:30;9.75;;;2.60;;
14268;SDS011;7218;51.480;7.006;2023-03-26T07:10:56;13.05;;;3.05;;
14268;SDS011;7218;51.480;7.006;2023-03-26T07:13:23;10.43;;;3.15;;
14268;SDS011;7218;51.480;7.006;2023-03-26T07:15:51;14.07;;;3.20;;
14268;SDS011;7218;51.480;7.006;2023-03-26T07:18:17;14.93;;;4.25;;
14268;SDS011;7218;51.480;7.006;2023-03-26T07:20:44;10.70;;;3.17;;
14268;SDS011;7218;51.480;7.006;2023-03-26T07:23:11;14.75;;;3.78;;
14268;SDS011;7218;51.480;7.006;2023-03-26T07:25:39;14.02;;;3.42;;
14268;SDS011;7218;51.480;7.006;2023-03-26T07:28:09;13.43;;;3.45;;
14268;SDS011;7218;51.480;7.006;2023-03-26T07:30:45;13.63;;;3.00;;
14268;SDS011;7218;51.480;7.006;2023-03-26T07:33:26;10.85;;;3.10;;
14268;SDS011;7218;51.480;7.006;2023-03-26T07:36:02;13.25;;;3.55;;
14268;SDS011;7218;51.480;7.006;2023-03-26T07:38:43;14.07;;;3.40;;
14268;SDS011;7218;51.480;7.006;2023-03-26T07:41:21;15.50;;;3.45;;
14268;SDS011;7218;51.480;7.006;2023-03-26T07:43:59;12.15;;;3.53;;
14268;SDS011;7218;51.480;7.006;2023-03-26T07:46:45;13.98;;;3.35;;
14268;SDS011;7218;51.480;7.006;2023-03-26T07:49:17;12.57;;;3.83;;
14268;SDS011;7218;51.480;7.006;2023-03-26T07:51:44;13.10;;;3.50;;
14268;SDS011;7218;51.480;7.006;2023-03-26T07:54:12;14.27;;;3.63;;
14268;SDS011;7218;51.480;7.006;2023-03-26T07:56:39;16.05;;;4.25;;
14268;SDS011;7218;51.480;7.006;2023-03-26T07:59:16;10.05;;;3.17;;
14268;SDS011;7218;51.480;7.006;2023-03-26T08:04:54;10.57;;;2.92;;
14268;SDS011;7218;51.480;7.006;2023-03-26T08:07:29;10.07;;;3.50;;
14268;SDS011;7218;51.480;7.006;2023-03-26T08:10:06;15.93;;;3.60;;
14268;SDS011;7218;51.480;7.006;2023-03-26T08:12:43;10.43;;;3.25;;
14268;SDS011;7218;51.480;7.006;2023-03-26T08:15:20;10.43;;;3.38;;
14268;SDS011;7218;51.480;7.006;2023-03-26T08:17:55;16.40;;;4.63;;
14268;SDS011;7218;51.480;7.006;2023-03-26T08:20:31;21.13;;;5.60;;
14268;SDS011;7218;51.480;7.006;2023-03-26T08:23:11;14.27;;;5.15;;
14268;SDS011;7218;51.480;7.006;2023-03-26T08:25:45;15.30;;;6.13;;
14268;SDS011;7218;51.480;7.006;2023-03-26T08:28:35;13.63;;;4.72;;
14268;SDS011;7218;51.480;7.006;2023-03-26T08:31:08;15.05;;;4.13;;
14268;SDS011;7218;51.480;7.006;2023-03-26T08:33:39;18.60;;;4.90;;
14268;SDS011;7218;51.480;7.006;2023-03-26T08:36:06;13.00;;;4.25;;
14268;SDS011;7218;51.480;7.006;2023-03-26T08:38:33;13.50;;;4.32;;
14268;SDS011;7218;51.480;7.006;2023-03-26T08:44:09;13.98;;;3.92;;
14268;SDS011;7218;51.480;7.006;2023-03-26T08:50:15;15.57;;;4.07;;
14268;SDS011;7218;51.480;7.006;2023-03-26T08:53:19;19.02;;;4.68;;
14268;SDS011;7218;51.480;7.006;2023-03-26T08:56:04;13.05;;;4.13;;
14268;SDS011;7218;51.480;7.006;2023-03-26T09:01:48;12.35;;;3.40;;
14268;SDS011;7218;51.480;7.006;2023-03-26T09:07:37;14.05;;;3.97;;
14268;SDS011;7218;51.480;7.006;2023-03-26T09:13:49;14.82;;;4.43;;
14268;SDS011;7218;51.480;7.006;2023-03-26T09:19:33;14.63;;;4.32;;
14268;SDS011;7218;51.480;7.006;2023-03-26T09:22:40;13.05;;;4.05;;
14268;SDS011;7218;51.480;7.006;2023-03-26T09:25:37;13.98;;;4.38;;
14268;SDS011;7218;51.480;7.006;2023-03-26T09:28:31;12.55;;;4.00;;
14268;SDS011;7218;51.480;7.006;2023-03-26T09:34:14;21.35;;;8.32;;
14268;SDS011;7218;51.480;7.006;2023-03-26T09:36:53;24.73;;;9.57;;
14268;SDS011;7218;51.480;7.006;2023-03-26T09:42:22;14.43;;;5.93;;
14268;SDS011;7218;51.480;7.006;2023-03-26T09:45:00;12.82;;;3.85;;
14268;SDS011;7218;51.480;7.006;2023-03-26T09:47:47;10.32;;;4.07;;
14268;SDS011;7218;51.480;7.006;2023-03-26T09:50:40;10.15;;;4.30;;
14268;SDS011;7218;51.480;7.006;2023-03-26T09:53:38;9.55;;;3.95;;
14268;SDS011;7218;51.480;7.006;2023-03-26T09:56:17;7.20;;;2.40;;
14268;SDS011;7218;51.480;7.006;2023-03-26T09:58:57;9.75;;;2.72;;
14268;SDS011;7218;51.480;7.006;2023-03-26T10:01:43;5.18;;;2.60;;
14268;SDS011;7218;51.480;7.006;2023-03-26T10:07:52;7.70;;;3.75;;
14268;SDS011;7218;51.480;7.006;2023-03-26T10:14:19;7.82;;;3.15;;
14268;SDS011;7218;51.480;7.006;2023-03-26T10:16:54;7.45;;;3.28;;
14268;SDS011;7218;51.480;7.006;2023-03-26T10:19:34;8.02;;;2.72;;
14268;SDS011;7218;51.480;7.006;2023-03-26T10:22:12;7.35;;;2.50;;
14268;SDS011;7218;51.480;7.006;2023-03-26T10:25:01;12.07;;;4.03;;
14268;SDS011;7218;51.480;7.006;2023-03-26T10:27:42;4.47;;;2.42;;
14268;SDS011;7218;51.480;7.006;2023-03-26T10:30:27;5.75;;;2.30;;
14268;SDS011;7218;51.480;7.006;2023-03-26T10:33:07;7.35;;;2.80;;
14268;SDS011;7218;51.480;7.006;2023-03-26T10:35:43;5.43;;;2.35;;
14268;SDS011;7218;51.480;7.006;2023-03-26T10:38:17;6.88;;;2.70;;
14268;SDS011;7218;51.480;7.006;2023-03-26T10:40:57;3.67;;;1.75;;
14268;SDS011;7218;51.480;7.006;2023-03-26T10:46:37;3.53;;;1.40;;
14268;SDS011;7218;51.480;7.006;2023-03-26T10:52:13;2.75;;;1.20;;
14268;SDS011;7218;51.480;7.006;2023-03-26T10:54:47;2.53;;;1.35;;
14268;SDS011;7218;51.480;7.006;2023-03-26T10:57:33;1.45;;;1.00;;
14268;SDS011;7218;51.480;7.006;2023-03-26T11:00:12;1.80;;;1.10;;
14268;SDS011;7218;51.480;7.006;2023-03-26T11:02:45;2.47;;;1.27;;
14268;SDS011;7218;51.480;7.006;2023-03-26T11:05:25;3.10;;;0.77;;
14268;SDS011;7218;51.480;7.006;2023-03-26T11:08:03;2.30;;;1.10;;
14268;SDS011;7218;51.480;7.006;2023-03-26T11:10:38;2.25;;;1.00;;
14268;SDS011;7218;51.480;7.006;2023-03-26T11:13:11;1.38;;;1.00;;
14268;SDS011;7218;51.480;7.006;2023-03-26T11:15:46;3.35;;;1.15;;
14268;SDS011;7218;51.480;7.006;2023-03-26T11:18:23;1.70;;;1.02;;
14268;SDS011;7218;51.480;7.006;2023-03-26T11:21:00;3.35;;;0.95;;
14268;SDS011;7218;51.480;7.006;2023-03-26T11:23:33;1.83;;;1.10;;
14268;SDS011;7218;51.480;7.006;2023-03-26T11:26:05;1.75;;;1.10;;
14268;SDS011;7218;51.480;7.006;2023-03-26T11:28:38;1.90;;;0.95;;
14268;SDS011;7218;51.480;7.006;2023-03-26T11:31:24;2.97;;;1.33;;
14268;SDS011;7218;51.480;7.006;2023-03-26T11:34:02;2.88;;;1.45;;
14268;SDS011;7218;51.480;7.006;2023-03-26T11:36:34;1.92;;;1.10;;
14268;SDS011;7218;51.480;7.006;2023-03-26T11:39:06;1.75;;;0.90;;
14268;SDS011;7218;51.480;7.006;2023-03-26T11:41:38;2.15;;;1.13;;
14268;SDS011;7218;51.480;7.006;2023-03-26T11:44:17;1.92;;;1.00;;
14268;SDS011;7218;51.480;7.006;2023-03-26T11:46:47;1.70;;;1.10;;
14268;SDS011;7218;51.480;7.006;2023-03-26T11:49:19;2.05;;;1.30;;
14268;SDS011;7218;51.480;7.006;2023-03-26T11:51:47;2.17;;;1.30;;
14268;SDS011;7218;51.480;7.006;2023-03-26T11:54:14;6.80;;;6.03;;
14268;SDS011;7218;51.480;7.006;2023-03-26T11:56:42;4.63;;;3.15;;
14268;SDS011;7218;51.480;7.006;2023-03-26T11:59:13;2.58;;;1.33;;
14268;SDS011;7218;51.480;7.006;2023-03-26T12:01:43;9.02;;;8.20;;
14268;SDS011;7218;51.480;7.006;2023-03-26T12:04:15;2.85;;;1.90;;
14268;SDS011;7218;51.480;7.006;2023-03-26T12:06:51;1.95;;;1.70;;
14268;SDS011;7218;51.480;7.006;2023-03-26T12:09:22;2.55;;;2.00;;
14268;SDS011;7218;51.480;7.006;2023-03-26T12:11:51;1.83;;;1.67;;
14268;SDS011;7218;51.480;7.006;2023-03-26T12:14:20;1.73;;;1.50;;
14268;SDS011;7218;51.480;7.006;2023-03-26T12:17:00;1.25;;;1.10;;
14268;SDS011;7218;51.480;7.006;2023-03-26T12:19:33;2.92;;;1.30;;
14268;SDS011;7218;51.480;7.006;2023-03-26T12:22:04;2.20;;;1.52;;
14268;SDS011;7218;51.480;7.006;2023-03-26T12:24:33;1.35;;;1.10;;
14268;SDS011;7218;51.480;7.006;2023-03-26T12:27:05;1.50;;;1.20;;
14268;SDS011;7218;51.480;7.006;2023-03-26T12:29:49;2.90;;;1.30;;
14268;SDS011;7218;51.480;7.006;2023-03-26T12:32:16;1.10;;;0.90;;
14268;SDS011;7218;51.480;7.006;2023-03-26T12:34:43;1.38;;;1.10;;
14268;SDS011;7218;51.480;7.006;2023-03-26T12:40:05;1.50;;;1.40;;
14268;SDS011;7218;51.480;7.006;2023-03-26T12:42:36;1.40;;;1.30;;
14268;SDS011;7218;51.480;7.006;2023-03-26T12:45:06;1.05;;;0.82;;
14268;SDS011;7218;51.480;7.006;2023-03-26T12:47:38;1.50;;;1.13;;
14268;SDS011;7218;51.480;7.006;2023-03-26T12:50:07;1.27;;;1.08;;
14268;SDS011;7218;51.480;7.006;2023-03-26T12:52:46;1.30;;;1.17;;
14268;SDS011;7218;51.480;7.006;2023-03-26T12:55:32;0.90;;;0.63;;
14268;SDS011;7218;51.480;7.006;2023-03-26T12:58:27;0.80;;;0.77;;
14268;SDS011;7218;51.480;7.006;2023-03-26T13:01:08;0.52;;;0.52;;
14268;SDS011;7218;51.480;7.006;2023-03-26T13:03:42;0.95;;;0.88;;
14268;SDS011;7218;51.480;7.006;2023-03-26T13:06:27;1.25;;;1.10;;
14268;SDS011;7218;51.480;7.006;2023-03-26T13:09:03;1.13;;;1.08;;
14268;SDS011;7218;51.480;7.006;2023-03-26T13:11:54;1.17;;;0.93;;
14268;SDS011;7218;51.480;7.006;2023-03-26T13:14:33;2.30;;;1.85;;
14268;SDS011;7218;51.480;7.006;2023-03-26T13:17:16;2.20;;;1.02;;
14268;SDS011;7218;51.480;7.006;2023-03-26T13:19:51;1.75;;;1.20;;
14268;SDS011;7218;51.480;7.006;2023-03-26T13:22:27;0.88;;;0.80;;
14268;SDS011;7218;51.480;7.006;2023-03-26T13:25:18;1.50;;;1.40;;
14268;SDS011;7218;51.480;7.006;2023-03-26T13:27:57;1.88;;;1.08;;
14268;SDS011;7218;51.480;7.006;2023-03-26T13:30:38;1.80;;;0.93;;
14268;SDS011;7218;51.480;7.006;2023-03-26T13:33:18;0.70;;;0.70;;
14268;SDS011;7218;51.480;7.006;2023-03-26T13:35:55;0.93;;;0.68;;
14268;SDS011;7218;51.480;7.006;2023-03-26T13:38:28;1.25;;;0.63;;
14268;SDS011;7218;51.480;7.006;2023-03-26T13:41:08;0.98;;;0.60;;
14268;SDS011;7218;51.480;7.006;2023-03-26T13:43:50;0.68;;;0.63;;
14268;SDS011;7218;51.480;7.006;2023-03-26T13:46:27;0.80;;;0.77;;
14268;SDS011;7218;51.480;7.006;2023-03-26T13:48:58;1.52;;;1.00;;
14268;SDS011;7218;51.480;7.006;2023-03-26T13:51:29;1.15;;;0.88;;
14268;SDS011;7218;51.480;7.006;2023-03-26T13:54:04;0.80;;;0.80;;
14268;SDS011;7218;51.480;7.006;2023-03-26T13:56:43;1.45;;;1.00;;
14268;SDS011;7218;51.480;7.006;2023-03-26T13:59:13;0.70;;;0.60;;
14268;SDS011;7218;51.480;7.006;2023-03-26T14:01:46;0.90;;;0.60;;
14268;SDS011;7218;51.480;7.006;2023-03-26T14:04:18;1.30;;;0.77;;
14268;SDS011;7218;51.480;7.006;2023-03-26T14:06:51;1.25;;;0.80;;
14268;SDS011;7218;51.480;7.006;2023-03-26T14:09:24;0.63;;;0.57;;
14268;SDS011;7218;51.480;7.006;2023-03-26T14:14:47;0.63;;;0.63;;
14268;SDS011;7218;51.480;7.006;2023-03-26T14:17:18;2.53;;;0.90;;
14268;SDS011;7218;51.480;7.006;2023-03-26T14:20:04;2.25;;;0.75;;
14268;SDS011;7218;51.480;7.006;2023-03-26T14:22:53;1.08;;;0.60;;
14268;SDS011;7218;51.480;7.006;2023-03-26T14:25:43;2.03;;;0.88;;
14268;SDS011;7218;51.480;7.006;2023-03-26T14:28:34;1.48;;;1.08;;
14268;SDS011;7218;51.480;7.006;2023-03-26T14:31:20;1.33;;;1.00;;
14268;SDS011;7218;51.480;7.006;2023-03-26T14:34:02;2.28;;;1.10;;
14268;SDS011;7218;51.480;7.006;2023-03-26T14:42:59;1.35;;;0.90;;
14268;SDS011;7218;51.480;7.006;2023-03-26T14:45:49;1.08;;;0.90;;
14268;SDS011;7218;51.480;7.006;2023-03-26T14:48:38;1.98;;;0.90;;
14268;SDS011;7218;51.480;7.006;2023-03-26T14:51:18;1.10;;;1.00;;
14268;SDS011;7218;51.480;7.006;2023-03-26T14:53:55;1.20;;;1.00;;
14268;SDS011;7218;51.480;7.006;2023-03-26T14:56:41;1.77;;;1.20;;
14268;SDS011;7218;51.480;7.006;2023-03-26T15:02:53;2.40;;;1.30;;
14268;SDS011;7218;51.480;7.006;2023-03-26T15:05:47;2.78;;;1.60;;
14268;SDS011;7218;51.480;7.006;2023-03-26T15:11:40;3.28;;;1.85;;
14268;SDS011;7218;51.480;7.006;2023-03-26T15:17:26;4.05;;;1.70;;
14268;SDS011;7218;51.480;7.006;2023-03-26T15:23:34;4.38;;;2.00;;
14268;SDS011;7218;51.480;7.006;2023-03-26T15:29:31;2.67;;;1.67;;
14268;SDS011;7218;51.480;7.006;2023-03-26T15:35:34;2.83;;;1.58;;
14268;SDS011;7218;51.480;7.006;2023-03-26T15:38:25;2.35;;;1.48;;
14268;SDS011;7218;51.480;7.006;2023-03-26T15:41:12;2.60;;;1.60;;
14268;SDS011;7218;51.480;7.006;2023-03-26T15:46:56;5.22;;;1.75;;
14268;SDS011;7218;51.480;7.006;2023-03-26T15:49:42;3.38;;;1.60;;
14268;SDS011;7218;51.480;7.006;2023-03-26T15:52:17;3.25;;;1.63;;
14268;SDS011;7218;51.480;7.006;2023-03-26T15:54:52;2.78;;;1.50;;
14268;SDS011;7218;51.480;7.006;2023-03-26T15:57:26;4.63;;;1.80;;
14268;SDS011;7218;51.480;7.006;2023-03-26T16:00:00;4.57;;;1.70;;
14268;SDS011;7218;51.480;7.006;2023-03-26T16:02:40;4.22;;;2.00;;
14268;SDS011;7218;51.480;7.006;2023-03-26T16:05:29;3.58;;;2.20;;
14268;SDS011;7218;51.480;7.006;2023-03-26T16:08:19;4.18;;;2.40;;
14268;SDS011;7218;51.480;7.006;2023-03-26T16:10:55;5.28;;;3.00;;
14268;SDS011;7218;51.480;7.006;2023-03-26T16:13:29;6.30;;;3.20;;
14268;SDS011;7218;51.480;7.006;2023-03-26T16:16:11;17.08;;;7.20;;
14268;SDS011;7218;51.480;7.006;2023-03-26T16:18:45;41.90;;;12.70;;
14268;SDS011;7218;51.480;7.006;2023-03-26T16:21:23;16.77;;;5.45;;
14268;SDS011;7218;51.480;7.006;2023-03-26T16:26:53;23.50;;;8.10;;
14268;SDS011;7218;51.480;7.006;2023-03-26T16:29:27;16.73;;;4.93;;
14268;SDS011;7218;51.480;7.006;2023-03-26T16:32:09;15.68;;;4.45;;
14268;SDS011;7218;51.480;7.006;2023-03-26T16:34:41;16.45;;;4.75;;
14268;SDS011;7218;51.480;7.006;2023-03-26T16:43:00;15.85;;;4.93;;
14268;SDS011;7218;51.480;7.006;2023-03-26T16:45:35;14.98;;;4.35;;
14268;SDS011;7218;51.480;7.006;2023-03-26T16:48:09;15.38;;;4.63;;
14268;SDS011;7218;51.480;7.006;2023-03-26T16:50:48;15.77;;;4.60;;
14268;SDS011;7218;51.480;7.006;2023-03-26T16:53:25;15.85;;;3.95;;